Etusivu
METAR-TAF:

METAR-TAF

Lentoasemat :

St. Clair County International Airport

Port Huron, Michigan, Yhdysvallat

Leveyspiiri: 42-55N, Pituuspiiri: 082-32W, korkeus merenpinnasta: 198 m

Tämänhetkinen sää

Tämä raportti tehtiin 20 minuuttia sitten, kello 15.56 UTC
Tuuli 3 kn lännestä
Lämpötila 9°C
Kosteus 53%
Ilmanpaine 1017 hPa
Näkyvyys: 16.1 km
Hajanaisia pilviä 3800 ft:n korkeudessa
Hajonneita pilviä 4800 ft:n korkeudessa

METAR: KPHN 141556Z AUTO 28003KT 10SM SCT038 BKN048 09/00 A3002 RMK AO2

Aika: 12:16 (16:16 UTC)


TAF: puuttuu

Säähavainnot ja -ennusteet yli 4000 lentoasemalta (METAR- ja TAF-raportit).

Käytössä olevat sääasemat on merkitty karttaan keltaisilla ja punaisilla pisteillä.

Aseta hiiri pisteen päälle nähdäksesi sääaseman nimen.

Klikkaa sitten nähdäksesi säähavainnot ja -ennusteet.

Kartan vaihtaminen: klikkaa mustalla rastilla varustettuja vihreitä pisteitä, niin voit zoomata sisään; viivalla varustettua vihreää pistettä, niin voit zoomata ulos tai vihreitä nuolia, niin pääset viereisille kartoille.


METAR-TAF: